Mabel, MN (55954)

11:09 PM CDT on May 27, 2015 (GMT -0500)
Preston | | Change Station
CLOSE
Current Station
Personal Weather Station
Location: Preston, MN
Elevation: 990 ft
Nearby Weather Stations

Elev 990 ft 43.68 °N, 92.08 °W | Updated 36 seconds ago

Clear
Clear
62.8 °F
Feels Like 62.8 °F
N
1.4
Wind Variable Wind from NW
Gusts 1.4 mph

Today
High -- | Low -- °F
--% Chance of Precip.
Yesterday
High -- | Low -- °F
Precip. -- in
5:31 AM 8:37 PM
Waxing Gibbous, 72% visible
Pressure 30.07 in
Visibility 10.0 miles
Clouds Scattered Clouds 5000 ft
Scattered Clouds 5500 ft
Dew Point 59 °F
Humidity 87%
Rainfall 0.02 in
Snow Depth Not available.
UV 0 out of 12
Pollen 6.70 out of 12
Air Quality Not available.
Flu Activity Sporadic
METAR KDEH 280355Z AUTO 19003KT 10SM SCT050 SCT055 20/15 A3007 RMK AO2

More Conditions Fewer Conditions

Pressure 30.07 in
Visibility 10.0 miles
Clouds Scattered Clouds 5000 ft
Scattered Clouds 5500 ft
Dew Point 59 °F
Humidity 87%
Rainfall 0.02 in
Snow Depth Not available.
UV 0 out of 12
Pollen 6.70 out of 12
Air Quality Not available.
Flu Activity Sporadic
METAR KDEH 280355Z AUTO 19003KT 10SM SCT050 SCT055 20/15 A3007 RMK AO2

More Conditions Fewer Conditions

10-Day Weather Forecast

Almanac

Astronomy

May. 27, 2015 Rise Set
Actual Time
Civil Twilight
Nautical Twilight
Astronomical Twilight
Moon
Length of Visible Light
Length of Day
Tomorrow will be .
, % of the Moon is Illuminated

Today's Extremes

State Highs State Lows

Community

WunderPhotos

Upload Photos

1,824,914 photos uploaded!

WunderBlogs® & News

Nearby

Air Quality

  Air Quality AQ Index Pollutant
Not available.

Snow Depth

Station Depth Elevation

Earthquake Activity

City Distance Mag. Time & Date
Minimum magnitude displayed is 2.5.

Coastal Water Temperatures

Place Temperature

Stations

Nearby Weather Stations

Station Location Temp. Windchill Dew Point Humidity Wind Precip. Elev Updated Type